Time;durP1;ratioP1;P1;durP2;ratioP2;P2;SDS_P1;SDS_P2;PMS_P1;PMS_P2;Temp;Humidity;BMP_temperature;BMP_pressure;BME280_temperature;BME280_humidity;BME280_pressure;Samples;Min_cycle;Max_cycle;Signal;HPM_P1;HPM_P2
2022/07/04 00:00:28;;;;;;;8.57;3.40;;;19.60;53.50;;;;;;5048842;28;45936;-58
2022/07/04 00:02:54;;;;;;;10.90;3.33;;;19.60;53.20;;;;;;5049813;28;46632;-61
2022/07/04 00:05:21;;;;;;;13.63;4.13;;;19.60;53.20;;;;;;5051387;28;46360;-61
2022/07/04 00:07:48;;;;;;;6.80;3.67;;;19.60;53.30;;;;;;5050228;28;46470;-60
2022/07/04 00:10:16;;;;;;;5.23;3.23;;;19.50;55.00;;;;;;5051535;28;46433;-61
2022/07/04 00:12:42;;;;;;;8.20;3.60;;;19.50;54.20;;;;;;5046246;28;46376;-61
2022/07/04 00:15:09;;;;;;;12.67;2.93;;;19.50;54.10;;;;;;5049257;28;46981;-60
2022/07/04 00:17:35;;;;;;;7.97;3.00;;;19.50;54.30;;;;;;5049414;28;46424;-60
2022/07/04 00:20:01;;;;;;;6.00;3.03;;;19.50;54.10;;;;;;5049383;28;46665;-62
2022/07/04 00:22:27;;;;;;;7.20;3.60;;;19.50;54.00;;;;;;5050032;28;46382;-60
2022/07/04 00:24:52;;;;;;;10.37;3.40;;;19.50;54.30;;;;;;5049159;28;47801;-59
2022/07/04 00:27:18;;;;;;;16.27;3.93;;;19.40;54.30;;;;;;5065725;28;46484;-59
2022/07/04 00:29:44;;;;;;;6.67;3.43;;;19.40;55.60;;;;;;5056264;28;45811;-62
2022/07/04 00:32:10;;;;;;;7.00;3.30;;;19.40;54.60;;;;;;5052476;28;46421;-60
2022/07/04 00:34:36;;;;;;;7.87;3.63;;;19.40;54.70;;;;;;5049946;28;47851;-60
2022/07/04 00:37:02;;;;;;;5.63;2.90;;;19.30;54.90;;;;;;5050658;28;46421;-60
2022/07/04 00:39:28;;;;;;;7.53;2.83;;;19.30;55.30;;;;;;5050638;28;45935;-60
2022/07/04 00:41:54;;;;;;;8.93;3.30;;;19.20;56.10;;;;;;5050669;28;46560;-59
2022/07/04 00:44:20;;;;;;;7.07;4.03;;;19.00;56.60;;;;;;5051162;28;46446;-58
2022/07/04 00:46:47;;;;;;;4.47;3.10;;;19.00;57.10;;;;;;5049905;28;46468;-61
2022/07/04 00:49:14;;;;;;;9.93;3.50;;;19.00;58.50;;;;;;5050007;28;46463;-60
2022/07/04 00:51:42;;;;;;;7.17;3.87;;;18.90;57.60;;;;;;5049809;28;46437;-60
2022/07/04 00:54:13;;;;;;;8.87;3.60;;;18.80;58.10;;;;;;5050197;28;46660;-61
2022/07/04 00:56:41;;;;;;;5.20;3.63;;;18.80;58.30;;;;;;5050896;28;46524;-60
2022/07/04 00:59:07;;;;;;;11.57;3.50;;;18.80;58.20;;;;;;5045895;28;46600;-59
2022/07/04 01:01:34;;;;;;;5.43;3.37;;;18.90;58.10;;;;;;5050007;28;47054;-61
2022/07/04 01:04:02;;;;;;;7.63;3.20;;;19.00;57.90;;;;;;5050154;28;46706;-60
2022/07/04 01:06:28;;;;;;;6.30;3.67;;;19.00;57.80;;;;;;5049236;28;46418;-61
2022/07/04 01:08:54;;;;;;;9.27;3.60;;;19.00;57.70;;;;;;5048424;28;46484;-60
2022/07/04 01:11:20;;;;;;;9.83;3.77;;;19.00;57.70;;;;;;5048830;28;46477;-60
2022/07/04 01:13:45;;;;;;;11.63;3.20;;;19.00;58.00;;;;;;5048482;28;47103;-60
2022/07/04 01:16:12;;;;;;;8.40;3.50;;;19.00;57.90;;;;;;5050314;28;46359;-60
2022/07/04 01:18:38;;;;;;;6.77;3.60;;;19.00;58.10;;;;;;5048932;28;46356;-61
2022/07/04 01:21:04;;;;;;;9.67;4.07;;;19.00;58.30;;;;;;5049925;28;46647;-60
2022/07/04 01:23:30;;;;;;;13.87;3.93;;;19.00;58.30;;;;;;5049940;28;46309;-60
2022/07/04 01:25:57;;;;;;;6.40;3.60;;;19.00;58.20;;;;;;5050307;28;45959;-61
2022/07/04 01:28:23;;;;;;;7.93;3.77;;;19.10;58.10;;;;;;5048890;28;46412;-61
2022/07/04 01:30:49;;;;;;;11.53;4.00;;;19.10;58.00;;;;;;5050094;28;46521;-60
2022/07/04 01:33:17;;;;;;;5.70;3.40;;;19.10;57.80;;;;;;5049655;28;46467;-61
2022/07/04 01:35:43;;;;;;;6.90;3.60;;;19.10;57.80;;;;;;5049588;28;46633;-62
2022/07/04 01:38:09;;;;;;;20.60;3.70;;;19.20;57.80;;;;;;5048778;28;46413;-60
2022/07/04 01:40:35;;;;;;;22.53;4.33;;;19.20;57.70;;;;;;5049829;28;46400;-61
2022/07/04 01:43:00;;;;;;;6.33;3.90;;;19.20;57.80;;;;;;5049298;28;47935;-61
2022/07/04 01:45:26;;;;;;;20.37;4.83;;;19.20;57.80;;;;;;5048696;28;46394;-60
2022/07/04 01:47:52;;;;;;;11.20;4.37;;;19.10;58.10;;;;;;5048509;28;46387;-60
2022/07/04 01:50:17;;;;;;;10.03;3.37;;;19.20;58.50;;;;;;5049314;28;46524;-61
2022/07/04 01:52:43;;;;;;;8.43;4.20;;;19.10;58.50;;;;;;5048570;28;46401;-61
2022/07/04 01:55:10;;;;;;;6.10;3.50;;;19.10;58.40;;;;;;5048197;28;46413;-61
2022/07/04 01:57:36;;;;;;;7.90;4.07;;;19.20;58.40;;;;;;5049128;28;46505;-60
2022/07/04 02:02:51;;;;;;;10.47;3.40;;;19.20;58.30;;;;;;5048417;28;46018;-60
2022/07/04 02:05:17;;;;;;;5.00;3.23;;;19.20;58.20;;;;;;5049260;28;46434;-61
2022/07/04 02:07:43;;;;;;;8.90;3.83;;;19.20;58.30;;;;;;5047992;28;46475;-60
2022/07/04 02:10:09;;;;;;;10.50;3.90;;;19.20;58.60;;;;;;5063797;28;46674;-60
2022/07/04 02:15:19;;;;;;;10.20;4.00;;;19.10;59.40;;;;;;5049466;28;46539;-61
2022/07/04 02:17:46;;;;;;;9.53;4.10;;;19.10;59.40;;;;;;5049676;28;46853;-59
2022/07/04 02:20:11;;;;;;;7.90;3.87;;;19.10;59.60;;;;;;5045071;28;46378;-60
2022/07/04 02:22:37;;;;;;;15.90;4.77;;;19.10;59.90;;;;;;5048483;28;46411;-60
2022/07/04 02:25:03;;;;;;;9.23;3.73;;;19.10;60.00;;;;;;5046896;28;46338;-60
2022/07/04 02:27:29;;;;;;;8.60;3.93;;;19.00;60.00;;;;;;5048594;28;46440;-61
2022/07/04 02:29:55;;;;;;;5.33;4.10;;;18.90;60.60;;;;;;5048504;28;46360;-60
2022/07/04 02:32:20;;;;;;;7.00;4.20;;;18.80;61.10;;;;;;5047026;28;46448;-61
2022/07/04 02:34:46;;;;;;;7.87;3.90;;;18.70;61.20;;;;;;5047589;28;46436;-61
2022/07/04 02:37:12;;;;;;;7.50;3.90;;;18.70;61.30;;;;;;5047984;28;46729;-63
2022/07/04 02:39:37;;;;;;;13.40;4.50;;;18.70;61.40;;;;;;5047718;28;46630;-61
2022/07/04 02:42:03;;;;;;;15.30;4.30;;;18.70;61.40;;;;;;5048058;28;46183;-62
2022/07/04 02:44:30;;;;;;;10.80;3.70;;;18.70;61.40;;;;;;5048744;28;46483;-61
2022/07/04 02:46:55;;;;;;;9.10;3.90;;;18.60;61.30;;;;;;5044894;28;46466;-62
2022/07/04 02:49:21;;;;;;;9.00;4.40;;;18.60;61.30;;;;;;5045489;28;46441;-62
2022/07/04 02:51:47;;;;;;;7.10;3.70;;;18.60;61.40;;;;;;5047706;28;46608;-63
2022/07/04 02:54:12;;;;;;;9.80;3.77;;;18.60;61.40;;;;;;5048801;28;46522;-61
2022/07/04 02:56:38;;;;;;;13.60;4.50;;;18.60;61.70;;;;;;5049217;28;46389;-61
2022/07/04 02:59:04;;;;;;;35.53;5.30;;;18.50;61.70;;;;;;5046991;28;46319;-63
2022/07/04 03:01:29;;;;;;;8.37;3.57;;;18.50;61.90;;;;;;5047844;28;47291;-62
2022/07/04 03:03:55;;;;;;;7.73;3.17;;;18.30;63.80;;;;;;5048718;28;46389;-62
2022/07/04 03:06:20;;;;;;;11.23;3.77;;;18.20;62.70;;;;;;5048422;28;46372;-59
2022/07/04 03:08:46;;;;;;;19.77;4.20;;;18.30;62.70;;;;;;5047589;28;45986;-62
2022/07/04 03:11:11;;;;;;;18.77;3.90;;;18.20;62.50;;;;;;5047802;28;46500;-62
2022/07/04 03:13:39;;;;;;;11.90;4.10;;;18.30;62.40;;;;;;5045884;28;46717;-62
2022/07/04 03:16:05;;;;;;;12.50;4.93;;;18.40;62.10;;;;;;5047270;28;46520;-60
2022/07/04 03:18:31;;;;;;;8.47;4.20;;;18.40;62.00;;;;;;5047863;28;46367;-63
2022/07/04 03:20:57;;;;;;;15.57;4.73;;;18.50;61.70;;;;;;5046367;28;48383;-62
2022/07/04 03:23:22;;;;;;;13.83;5.00;;;18.60;61.40;;;;;;5048057;28;46365;-63
2022/07/04 03:25:48;;;;;;;11.23;4.63;;;18.60;61.60;;;;;;5048742;28;46384;-63
2022/07/04 03:28:13;;;;;;;7.90;3.93;;;18.60;61.70;;;;;;5047219;28;46042;-62
2022/07/04 03:30:39;;;;;;;8.20;4.63;;;18.70;61.70;;;;;;5046876;28;46539;-62
2022/07/04 03:33:05;;;;;;;13.40;4.03;;;18.70;61.70;;;;;;5046729;28;46394;-61
2022/07/04 03:35:30;;;;;;;7.47;4.40;;;18.70;61.70;;;;;;5047679;28;46433;-61
2022/07/04 03:37:56;;;;;;;6.10;4.60;;;18.80;61.90;;;;;;5047661;28;46534;-62
2022/07/04 03:40:22;;;;;;;11.20;3.80;;;18.80;61.80;;;;;;5046727;28;46413;-62
2022/07/04 03:42:48;;;;;;;13.40;3.70;;;18.70;62.20;;;;;;5061742;28;45945;-62
2022/07/04 03:45:14;;;;;;;16.47;4.43;;;18.70;62.60;;;;;;5048695;28;46556;-62
2022/07/04 03:47:39;;;;;;;8.83;4.10;;;18.60;62.90;;;;;;5049122;28;46409;-62
2022/07/04 03:50:05;;;;;;;12.30;4.20;;;18.60;63.10;;;;;;5046099;28;46516;-62
2022/07/04 03:52:31;;;;;;;7.57;4.03;;;18.50;63.10;;;;;;5047663;28;46473;-62
2022/07/04 03:54:57;;;;;;;12.00;4.10;;;18.50;63.10;;;;;;5050575;28;46626;-61
2022/07/04 03:57:23;;;;;;;8.53;4.70;;;18.60;63.20;;;;;;5048695;28;46338;-62
2022/07/04 03:59:49;;;;;;;9.27;3.93;;;18.60;63.00;;;;;;5045563;28;47403;-62
2022/07/04 04:02:14;;;;;;;12.37;4.30;;;18.70;62.90;;;;;;5046626;28;46528;-62
2022/07/04 04:07:24;;;;;;;7.67;3.73;;;18.90;62.70;;;;;;5048532;28;45850;-61
2022/07/04 04:09:50;;;;;;;8.30;4.50;;;19.00;62.30;;;;;;5049186;28;46782;-62
2022/07/04 04:12:15;;;;;;;12.00;3.80;;;19.00;62.20;;;;;;5051088;28;46328;-63
2022/07/04 04:14:41;;;;;;;6.10;4.00;;;19.10;61.90;;;;;;5051573;28;46491;-61
2022/07/04 04:17:07;;;;;;;7.60;4.03;;;19.20;61.70;;;;;;5052626;28;46480;-60
2022/07/04 04:19:32;;;;;;;11.30;3.83;;;19.30;61.50;;;;;;5049926;28;47025;-62
2022/07/04 04:21:58;;;;;;;9.40;4.03;;;19.30;61.40;;;;;;5050167;28;46393;-61
2022/07/04 04:24:23;;;;;;;6.80;4.30;;;19.30;61.60;;;;;;5050381;28;46382;-61
2022/07/04 04:26:49;;;;;;;8.80;3.67;;;19.30;61.70;;;;;;5050443;28;46433;-62
2022/07/04 04:29:15;;;;;;;13.80;4.40;;;19.40;61.70;;;;;;5050382;28;46477;-62
2022/07/04 04:31:40;;;;;;;11.30;3.70;;;19.40;61.80;;;;;;5050368;28;46516;-62
2022/07/04 04:34:06;;;;;;;7.83;3.60;;;19.50;61.80;;;;;;5052230;28;46488;-61
2022/07/04 04:36:32;;;;;;;5.00;3.60;;;19.50;61.60;;;;;;5050681;28;46521;-62
2022/07/04 04:38:57;;;;;;;5.57;3.33;;;19.60;61.50;;;;;;5050397;28;46472;-62
2022/07/04 04:41:23;;;;;;;8.07;3.60;;;19.70;61.40;;;;;;5050121;28;46388;-61
2022/07/04 04:43:49;;;;;;;8.20;3.53;;;19.70;61.00;;;;;;5051925;28;46362;-61
2022/07/04 04:46:15;;;;;;;8.47;3.57;;;19.80;60.70;;;;;;5050954;28;46333;-61
2022/07/04 04:48:40;;;;;;;9.73;3.33;;;19.90;60.70;;;;;;5049728;28;46980;-62
2022/07/04 04:51:06;;;;;;;8.80;3.13;;;20.10;60.90;;;;;;5051426;28;46500;-61
2022/07/04 04:53:31;;;;;;;5.67;2.70;;;20.30;61.10;;;;;;5050639;28;46350;-61
2022/07/04 04:55:57;;;;;;;6.60;3.40;;;20.40;60.50;;;;;;5048477;28;46485;-61
2022/07/04 04:58:23;;;;;;;6.73;3.00;;;20.50;60.50;;;;;;5051114;28;46254;-62
2022/07/04 05:00:49;;;;;;;4.13;2.97;;;20.60;60.30;;;;;;5050101;28;46484;-61
2022/07/04 05:03:18;;;;;;;6.53;2.97;;;20.70;60.00;;;;;;5048508;28;46377;-61
2022/07/04 05:05:44;;;;;;;3.47;2.43;;;20.80;59.80;;;;;;5050221;28;46564;-61
2022/07/04 05:08:12;;;;;;;4.60;1.97;;;20.90;59.40;;;;;;5050530;28;47181;-62
2022/07/04 05:10:38;;;;;;;5.33;2.90;;;21.00;59.10;;;;;;5047117;28;46714;-61
2022/07/04 05:13:04;;;;;;;14.77;3.07;;;21.10;58.80;;;;;;5048368;28;45868;-62
2022/07/04 05:15:30;;;;;;;17.10;3.00;;;21.10;58.40;;;;;;5048782;28;46532;-62
2022/07/04 05:17:56;;;;;;;6.83;2.80;;;21.10;58.10;;;;;;5048125;28;48012;-61
2022/07/04 05:20:22;;;;;;;8.93;2.33;;;21.20;57.90;;;;;;5047533;28;45948;-61
2022/07/04 05:22:47;;;;;;;8.00;2.90;;;21.20;57.70;;;;;;5050325;28;46595;-61
2022/07/04 05:25:13;;;;;;;7.80;2.97;;;21.20;57.60;;;;;;5049317;28;46457;-62
2022/07/04 05:27:39;;;;;;;7.33;2.43;;;21.10;57.30;;;;;;5049946;28;47197;-62
2022/07/04 05:30:06;;;;;;;7.73;2.73;;;21.10;57.40;;;;;;5047041;28;46422;-61
2022/07/04 05:32:32;;;;;;;4.63;2.40;;;21.10;57.30;;;;;;5052778;28;46401;-62
2022/07/04 05:34:58;;;;;;;7.77;3.07;;;21.10;57.20;;;;;;5057702;28;46452;-62
2022/07/04 05:37:23;;;;;;;5.70;2.70;;;21.10;57.20;;;;;;5065311;28;46458;-63
2022/07/04 05:39:49;;;;;;;10.10;2.30;;;21.10;56.80;;;;;;5050215;28;46406;-61
2022/07/04 05:42:15;;;;;;;12.40;3.00;;;21.10;57.00;;;;;;5049851;28;46492;-61
2022/07/04 05:44:41;;;;;;;7.03;3.10;;;21.10;57.30;;;;;;5047449;28;45969;-62
2022/07/04 05:47:07;;;;;;;6.30;2.63;;;21.10;56.80;;;;;;5048738;28;47063;-61
2022/07/04 05:49:33;;;;;;;12.60;2.60;;;21.10;56.70;;;;;;5047074;28;46440;-61
2022/07/04 05:51:58;;;;;;;8.63;2.20;;;21.10;56.50;;;;;;5048191;28;46393;-61
2022/07/04 05:54:24;;;;;;;5.17;2.43;;;21.10;56.50;;;;;;5050164;28;46584;-59
2022/07/04 05:56:50;;;;;;;5.63;2.60;;;21.10;56.10;;;;;;5048933;28;47324;-62
2022/07/04 05:59:15;;;;;;;5.83;2.37;;;21.20;56.00;;;;;;5049168;28;46405;-61
2022/07/04 06:01:41;;;;;;;11.13;2.50;;;21.10;56.10;;;;;;5048274;28;46412;-61
2022/07/04 06:04:07;;;;;;;5.70;2.30;;;21.00;56.10;;;;;;5050440;28;46757;-60
2022/07/04 06:06:34;;;;;;;5.33;2.67;;;21.00;56.10;;;;;;5048898;28;47242;-62
2022/07/04 06:09:00;;;;;;;6.00;2.27;;;20.90;56.20;;;;;;5048084;28;46413;-61
2022/07/04 06:11:26;;;;;;;5.43;2.20;;;20.90;56.50;;;;;;5046456;28;46424;-61
2022/07/04 06:13:51;;;;;;;5.73;2.10;;;20.90;56.20;;;;;;5045901;28;46479;-61
2022/07/04 06:16:17;;;;;;;3.67;2.00;;;20.90;56.30;;;;;;5039597;28;46476;-60
2022/07/04 06:18:43;;;;;;;4.40;1.80;;;20.90;56.00;;;;;;5044186;28;46563;-60
2022/07/04 06:21:09;;;;;;;7.93;1.90;;;20.90;55.50;;;;;;5044997;28;46691;-60
2022/07/04 06:23:35;;;;;;;7.27;2.33;;;21.00;55.20;;;;;;5047332;28;46391;-61
2022/07/04 06:26:01;;;;;;;6.23;2.23;;;21.00;54.90;;;;;;5045507;28;47975;-61
2022/07/04 06:28:27;;;;;;;3.80;1.73;;;21.10;54.80;;;;;;5043652;28;46528;-62
2022/07/04 06:30:53;;;;;;;5.70;1.90;;;21.10;54.40;;;;;;5046661;28;46481;-62
2022/07/04 06:33:18;;;;;;;5.30;2.50;;;21.20;54.10;;;;;;5045343;28;46634;-61
2022/07/04 06:35:56;;;;;;;4.10;2.00;;;21.30;53.60;;;;;;5046308;28;47819;-60
2022/07/04 06:38:28;;;;;;;3.77;1.80;;;21.40;53.30;;;;;;5047334;28;45921;-61
2022/07/04 06:40:56;;;;;;;6.37;2.20;;;21.50;52.60;;;;;;5047093;28;46446;-61
2022/07/04 06:43:22;;;;;;;3.50;2.07;;;21.70;52.20;;;;;;5046261;28;46560;-62
2022/07/04 06:45:48;;;;;;;5.63;2.47;;;21.80;51.70;;;;;;5045913;28;46480;-62
2022/07/04 06:48:13;;;;;;;4.33;2.20;;;22.00;51.30;;;;;;5045474;28;46445;-61
2022/07/04 06:50:39;;;;;;;4.83;2.57;;;22.10;50.80;;;;;;5046160;28;46387;-62
2022/07/04 06:53:06;;;;;;;3.23;1.97;;;22.10;50.90;;;;;;5048056;28;46581;-61
2022/07/04 06:55:35;;;;;;;6.60;2.50;;;22.10;51.10;;;;;;5046309;28;46509;-60
2022/07/04 06:58:01;;;;;;;2.80;1.87;;;22.10;51.00;;;;;;5046003;28;46509;-61
2022/07/04 07:00:27;;;;;;;4.30;1.97;;;22.00;51.10;;;;;;5046135;28;46545;-63
2022/07/04 07:02:52;;;;;;;11.17;2.13;;;22.00;51.30;;;;;;5044167;28;46492;-61
2022/07/04 07:05:18;;;;;;;5.40;1.80;;;22.00;51.30;;;;;;5045158;28;46396;-61
2022/07/04 07:07:43;;;;;;;6.67;2.33;;;22.00;51.30;;;;;;5046459;28;46449;-61
2022/07/04 07:10:09;;;;;;;5.47;2.20;;;22.00;51.00;;;;;;5045497;28;46428;-61
2022/07/04 07:12:35;;;;;;;6.03;2.50;;;22.00;51.00;;;;;;5044444;28;46486;-61
2022/07/04 07:15:02;;;;;;;4.63;2.10;;;22.20;50.60;;;;;;5045898;28;47190;-62
2022/07/04 07:17:28;;;;;;;4.87;2.50;;;22.20;50.30;;;;;;5044002;28;46511;-60
2022/07/04 07:19:54;;;;;;;3.50;1.90;;;22.30;50.10;;;;;;5045983;28;46495;-61
2022/07/04 07:22:20;;;;;;;4.70;2.23;;;22.40;50.00;;;;;;5044619;28;46412;-61
2022/07/04 07:24:46;;;;;;;3.70;2.13;;;22.50;50.00;;;;;;5046615;28;46498;-61
2022/07/04 07:27:12;;;;;;;6.87;2.00;;;22.60;50.00;;;;;;5046583;28;46406;-61
2022/07/04 07:29:38;;;;;;;3.27;1.80;;;22.60;50.00;;;;;;5045062;28;46415;-61
2022/07/04 07:32:05;;;;;;;4.03;2.03;;;22.60;50.00;;;;;;5046923;28;45902;-61
2022/07/04 07:34:31;;;;;;;10.33;2.00;;;22.70;50.80;;;;;;5044837;28;47217;-61
2022/07/04 07:36:57;;;;;;;3.57;1.83;;;22.90;49.10;;;;;;5044383;28;47010;-62
2022/07/04 07:39:23;;;;;;;4.50;2.17;;;23.20;48.50;;;;;;5044730;28;46556;-61
2022/07/04 07:41:48;;;;;;;6.83;1.97;;;23.30;48.10;;;;;;5048021;28;45911;-61
2022/07/04 07:44:14;;;;;;;3.27;2.00;;;23.40;47.70;;;;;;5046728;28;46893;-62
2022/07/04 07:46:40;;;;;;;3.70;2.07;;;23.70;47.30;;;;;;5048284;28;46378;-62
2022/07/04 07:49:06;;;;;;;3.67;2.07;;;23.80;46.80;;;;;;5049948;28;46429;-61
2022/07/04 07:51:32;;;;;;;5.90;1.97;;;24.20;46.10;;;;;;5050271;28;46354;-64
2022/07/04 07:53:58;;;;;;;5.93;2.00;;;24.50;45.30;;;;;;5051278;28;46678;-63
2022/07/04 07:56:24;;;;;;;3.87;1.90;;;24.70;44.00;;;;;;5052609;28;46457;-62
2022/07/04 07:58:50;;;;;;;4.57;2.00;;;25.00;43.30;;;;;;5050293;28;45792;-62
2022/07/04 08:01:16;;;;;;;4.63;1.67;;;25.10;42.20;;;;;;5051444;28;46348;-61
2022/07/04 08:06:26;;;;;;;4.60;1.90;;;25.00;41.60;;;;;;5052890;28;45906;-61
2022/07/04 08:08:51;;;;;;;5.33;2.10;;;25.00;41.40;;;;;;5051585;28;46453;-61
2022/07/04 08:11:17;;;;;;;3.90;1.67;;;25.00;40.90;;;;;;5055942;28;46435;-60
2022/07/04 08:13:43;;;;;;;5.00;2.60;;;25.00;40.60;;;;;;5051184;28;46470;-62
2022/07/04 08:16:09;;;;;;;3.93;1.90;;;25.00;40.60;;;;;;5050097;28;46433;-60
2022/07/04 08:18:35;;;;;;;3.53;2.13;;;25.00;40.90;;;;;;5048808;28;46734;-61
2022/07/04 08:21:01;;;;;;;3.53;1.90;;;25.10;40.60;;;;;;5050753;28;46393;-61
2022/07/04 08:23:29;;;;;;;4.10;2.03;;;25.00;40.70;;;;;;5050466;28;46304;-61
2022/07/04 08:25:55;;;;;;;3.33;1.80;;;25.30;40.40;;;;;;5049684;28;46434;-61
2022/07/04 08:28:21;;;;;;;4.00;1.83;;;25.50;39.40;;;;;;5049923;28;46572;-62
2022/07/04 08:30:46;;;;;;;3.20;1.90;;;25.80;39.20;;;;;;5051222;28;46335;-62
2022/07/04 08:33:12;;;;;;;6.27;1.83;;;26.00;38.80;;;;;;5049653;28;48137;-62
2022/07/04 08:35:37;;;;;;;5.47;2.27;;;25.90;38.00;;;;;;5051628;28;46366;-61
2022/07/04 08:38:03;;;;;;;4.50;1.90;;;26.20;37.40;;;;;;5051564;28;46437;-61
2022/07/04 08:40:30;;;;;;;3.77;2.00;;;26.20;36.60;;;;;;5048937;28;46399;-60
2022/07/04 08:42:57;;;;;;;4.43;2.03;;;26.20;36.10;;;;;;5047638;28;46736;-61
2022/07/04 08:45:27;;;;;;;5.63;2.13;;;26.50;35.60;;;;;;5049474;28;46463;-62
2022/07/04 08:48:01;;;;;;;3.30;1.73;;;26.60;34.80;;;;;;5052808;28;46465;-61
2022/07/04 08:50:33;;;;;;;3.50;2.30;;;27.00;34.10;;;;;;5052342;28;46100;-61
2022/07/04 08:53:19;;;;;;;3.17;1.83;;;27.40;32.90;;;;;;5048036;28;46389;-61
2022/07/04 08:58:33;;;;;;;5.23;1.80;;;28.20;30.40;;;;;;5050947;28;46381;-60
2022/07/04 09:01:07;;;;;;;3.70;1.40;;;27.90;28.60;;;;;;5049321;28;46611;-61
2022/07/04 09:03:33;;;;;;;3.90;1.60;;;27.60;29.00;;;;;;5047734;28;46492;-62
2022/07/04 09:06:00;;;;;;;3.40;1.63;;;27.30;29.10;;;;;;5048083;28;46362;-61
2022/07/04 09:08:26;;;;;;;2.50;1.60;;;26.80;28.70;;;;;;5050438;28;46373;-64
2022/07/04 09:10:53;;;;;;;4.13;1.40;;;26.30;30.60;;;;;;5049011;28;46450;-64
2022/07/04 09:13:19;;;;;;;4.00;1.57;;;26.10;29.80;;;;;;5047909;28;48028;-61
2022/07/04 09:15:48;;;;;;;2.53;1.53;;;26.00;30.20;;;;;;5049999;28;46428;-63
2022/07/04 09:18:24;;;;;;;4.57;1.97;;;26.50;30.50;;;;;;5047346;28;46351;-63
2022/07/04 09:20:50;;;;;;;3.70;1.33;;;26.90;29.90;;;;;;5048602;28;46760;-63
2022/07/04 09:23:25;;;;;;;4.60;1.80;;;27.50;29.10;;;;;;5050998;28;47060;-62
2022/07/04 09:26:09;;;;;;;6.30;1.83;;;28.20;27.70;;;;;;5048555;28;46384;-60
2022/07/04 09:28:35;;;;;;;4.43;1.60;;;28.60;26.60;;;;;;5047068;28;46479;-60
2022/07/04 09:31:01;;;;;;;6.10;2.23;;;28.70;25.60;;;;;;5049298;28;46428;-60
2022/07/04 09:33:49;;;;;;;3.70;1.50;;;28.20;25.50;;;;;;5047532;28;47373;-61
2022/07/04 09:36:17;;;;;;;2.80;1.53;;;27.90;26.10;;;;;;5047135;28;46390;-61
2022/07/04 09:38:43;;;;;;;3.63;1.50;;;27.90;26.30;;;;;;5045181;28;46494;-60
2022/07/04 09:41:24;;;;;;;2.30;1.37;;;28.30;25.60;;;;;;5048878;28;46409;-61
2022/07/04 09:44:05;;;;;;;2.63;1.70;;;28.60;25.20;;;;;;5046881;28;46995;-61
2022/07/04 09:46:31;;;;;;;3.37;1.50;;;28.80;24.50;;;;;;5048610;28;45923;-62
2022/07/04 09:48:57;;;;;;;4.90;1.60;;;29.20;24.30;;;;;;5050052;28;46499;-61
2022/07/04 09:51:39;;;;;;;7.63;2.10;;;29.40;23.70;;;;;;5044761;28;46460;-61
2022/07/04 09:54:15;;;;;;;5.07;2.00;;;29.60;23.60;;;;;;5049173;28;47179;-61
2022/07/04 09:56:51;;;;;;;2.50;1.43;;;29.80;22.60;;;;;;5047835;28;46413;-61
2022/07/04 09:59:17;;;;;;;4.83;2.00;;;29.70;22.70;;;;;;5047691;28;46432;-62
2022/07/04 10:01:43;;;;;;;4.13;1.93;;;29.50;23.10;;;;;;5049247;28;46649;-63
2022/07/04 10:04:09;;;;;;;4.07;2.40;;;29.00;23.70;;;;;;5048846;28;47977;-60
2022/07/04 10:06:37;;;;;;;3.87;1.73;;;28.90;24.10;;;;;;5049088;28;46462;-61
2022/07/04 10:09:11;;;;;;;3.93;1.87;;;28.70;23.90;;;;;;5047769;28;46539;-62
2022/07/04 10:11:38;;;;;;;3.37;1.70;;;28.50;24.50;;;;;;5046709;28;46383;-62
2022/07/04 10:14:06;;;;;;;4.03;2.00;;;28.30;24.50;;;;;;5047934;28;46504;-63
2022/07/04 10:16:32;;;;;;;4.00;1.63;;;28.50;24.20;;;;;;5047789;28;46332;-61
2022/07/04 10:18:57;;;;;;;4.80;1.60;;;28.70;23.80;;;;;;5047103;28;46431;-61
2022/07/04 10:21:24;;;;;;;2.37;1.23;;;29.10;23.30;;;;;;5047708;28;46013;-63
2022/07/04 10:23:52;;;;;;;3.83;1.80;;;29.20;22.70;;;;;;5048007;28;46373;-60
2022/07/04 10:26:20;;;;;;;4.20;1.70;;;29.30;22.60;;;;;;5047511;28;46732;-60
2022/07/04 10:28:47;;;;;;;5.00;1.57;;;29.50;22.30;;;;;;5047155;28;46483;-60
2022/07/04 10:31:14;;;;;;;2.80;1.60;;;29.40;22.10;;;;;;5048791;28;46043;-61
2022/07/04 10:33:40;;;;;;;2.57;1.50;;;29.30;22.10;;;;;;5045578;28;46918;-60
2022/07/04 10:36:17;;;;;;;3.43;1.90;;;29.70;21.90;;;;;;5046966;28;46723;-61
2022/07/04 10:38:48;;;;;;;2.57;1.40;;;29.70;21.70;;;;;;5048463;28;45865;-62
2022/07/04 10:41:14;;;;;;;4.03;1.70;;;29.80;21.40;;;;;;5047269;28;46547;-61
2022/07/04 10:43:52;;;;;;;3.00;1.80;;;29.60;21.50;;;;;;5047858;28;46484;-61
2022/07/04 10:46:24;;;;;;;3.50;1.50;;;29.50;21.90;;;;;;5047132;28;46640;-61
2022/07/04 10:48:50;;;;;;;2.97;1.60;;;29.60;21.70;;;;;;5046628;28;46456;-61
2022/07/04 10:51:34;;;;;;;5.40;1.93;;;29.70;21.80;;;;;;5047296;28;46439;-62
2022/07/04 10:54:03;;;;;;;3.10;1.30;;;29.80;21.40;;;;;;5045142;28;46171;-61
2022/07/04 10:56:28;;;;;;;2.60;1.53;;;30.00;20.90;;;;;;5047623;28;46357;-61
2022/07/04 10:59:01;;;;;;;3.50;1.73;;;29.70;21.10;;;;;;5047813;28;45946;-62
2022/07/04 11:01:26;;;;;;;2.43;1.30;;;29.50;21.20;;;;;;5048188;28;46616;-61
2022/07/04 11:03:54;;;;;;;3.70;1.77;;;29.40;21.60;;;;;;5048503;28;46454;-62
2022/07/04 11:06:43;;;;;;;3.13;1.43;;;29.50;21.40;;;;;;5047727;28;45881;-62
2022/07/04 11:09:19;;;;;;;3.50;1.53;;;29.80;20.20;;;;;;5046858;28;46402;-61
2022/07/04 11:11:58;;;;;;;3.10;1.60;;;30.00;20.00;;;;;;5044581;28;46459;-63
2022/07/04 11:14:43;;;;;;;4.73;1.50;;;30.10;20.00;;;;;;5048480;28;46445;-62
2022/07/04 11:17:26;;;;;;;4.03;1.63;;;29.80;20.10;;;;;;5047816;28;46443;-60
2022/07/04 11:19:59;;;;;;;4.13;1.60;;;29.30;20.60;;;;;;5054943;28;46371;-60
2022/07/04 11:22:25;;;;;;;4.77;1.50;;;28.70;22.10;;;;;;5052224;28;45878;-60
2022/07/04 11:24:50;;;;;;;4.63;1.80;;;28.60;22.00;;;;;;5054434;28;47086;-62
2022/07/04 11:27:16;;;;;;;3.60;1.70;;;28.70;21.90;;;;;;5052287;28;46752;-61
2022/07/04 11:29:52;;;;;;;3.30;1.80;;;29.20;21.60;;;;;;5052580;28;46710;-60
2022/07/04 11:32:18;;;;;;;4.17;1.77;;;29.30;22.40;;;;;;5052538;28;46647;-60
2022/07/04 11:34:44;;;;;;;3.00;1.80;;;29.00;21.60;;;;;;5053174;28;46395;-61
2022/07/04 11:37:10;;;;;;;3.93;1.63;;;28.70;21.90;;;;;;5053170;28;46448;-62
2022/07/04 11:39:35;;;;;;;3.43;1.70;;;28.20;22.50;;;;;;5053680;28;46452;-64
2022/07/04 11:47:25;;;;;;;4.80;1.60;;;29.30;21.50;;;;;;5051206;28;46653;-61
2022/07/04 11:49:56;;;;;;;4.43;1.63;;;29.60;21.40;;;;;;5054032;28;46346;-60
2022/07/04 11:52:53;;;;;;;4.33;1.50;;;30.00;20.60;;;;;;5054400;28;46382;-61
2022/07/04 11:55:21;;;;;;;3.03;1.70;;;30.30;19.40;;;;;;5046819;28;47456;-62
2022/07/04 11:57:47;;;;;;;4.10;1.63;;;30.00;20.10;;;;;;5053853;28;46398;-60
2022/07/04 12:00:16;;;;;;;4.57;1.90;;;29.70;20.30;;;;;;5051103;28;46414;-62
2022/07/04 12:02:42;;;;;;;3.70;1.67;;;29.40;20.70;;;;;;5052603;28;46584;-61
2022/07/04 12:05:10;;;;;;;4.37;1.57;;;29.30;21.10;;;;;;5051687;28;46472;-61
2022/07/04 12:07:41;;;;;;;4.90;1.80;;;29.40;20.90;;;;;;5052433;28;46304;-62
2022/07/04 12:10:27;;;;;;;7.83;1.83;;;29.50;20.40;;;;;;5050893;28;46499;-60
2022/07/04 12:12:53;;;;;;;4.00;1.90;;;29.50;20.40;;;;;;5052931;28;46534;-61
2022/07/04 12:15:20;;;;;;;4.73;1.90;;;30.00;19.90;;;;;;5053073;28;46854;-61
2022/07/04 12:17:50;;;;;;;3.93;1.50;;;30.40;19.30;;;;;;5053679;28;46350;-60
2022/07/04 12:20:17;;;;;;;5.57;1.50;;;30.70;17.90;;;;;;5052656;28;46705;-64
2022/07/04 12:22:55;;;;;;;3.07;1.40;;;30.60;17.90;;;;;;5052987;28;46427;-59
2022/07/04 12:25:32;;;;;;;2.57;1.50;;;30.00;18.40;;;;;;5051727;28;46980;-59
2022/07/04 12:28:01;;;;;;;2.70;1.53;;;30.00;18.60;;;;;;5050968;28;46780;-60
2022/07/04 12:30:30;;;;;;;4.47;1.83;;;30.20;18.50;;;;;;5047604;28;46719;-60
2022/07/04 12:33:01;;;;;;;2.47;1.50;;;30.40;17.80;;;;;;5050135;28;46740;-59
2022/07/04 12:35:44;;;;;;;3.83;1.67;;;30.60;17.90;;;;;;5048900;28;46413;-60
2022/07/04 12:38:13;;;;;;;3.03;1.70;;;30.30;17.70;;;;;;5049636;28;46437;-59
2022/07/04 12:41:07;;;;;;;3.77;1.47;;;30.00;18.40;;;;;;5048522;28;46466;-60
2022/07/04 12:43:42;;;;;;;2.57;1.50;;;29.80;18.70;;;;;;5049372;28;45930;-61
2022/07/04 12:46:36;;;;;;;4.90;1.57;;;30.00;19.10;;;;;;5049381;28;46596;-60
2022/07/04 12:49:02;;;;;;;2.40;1.50;;;30.30;18.30;;;;;;5047364;28;47586;-59
2022/07/04 12:51:33;;;;;;;4.30;1.90;;;30.30;17.80;;;;;;5049388;28;46359;-60
2022/07/04 12:54:06;;;;;;;3.40;1.60;;;30.10;17.80;;;;;;5047311;28;46359;-59
2022/07/04 12:56:37;;;;;;;4.03;1.70;;;30.20;17.70;;;;;;5049585;28;46371;-60
2022/07/04 12:59:08;;;;;;;3.90;1.50;;;30.40;17.80;;;;;;5046640;28;46808;-58
2022/07/04 13:01:35;;;;;;;3.50;1.47;;;30.70;17.10;;;;;;5032895;28;46395;-59
2022/07/04 13:04:01;;;;;;;3.80;1.80;;;31.10;16.50;;;;;;5035507;28;46655;-60
2022/07/04 13:06:27;;;;;;;3.97;1.60;;;31.20;16.50;;;;;;5031688;28;46406;-60